Tecumseh, Canada
Current Conditions -  °F | °C
As of 9:00 AM on Thursday 29 Jan 2015 (Local Time) from CYQG Reporting Station
Overcast Overcast  
Wind Chill: 24°   Ceiling: 4400
Heat Index: 30°   Visibility: 15mi
Dew Point: 23°   Wind: 6mph
Humidity: 75%   Direction: 160°SSE
Pressure: 29.79"   Gusts: NA
Location:  42.32°N, 82.89°W
Report Text: CYQG 291400Z 16005KT 15SM OVC044 M01/M05 A2979 RMK SC8 SLP098
Loading
Personal Weather Stations






























Interactive Weather Map New forecast layout! Learn more

10-Day Weather Forecast

Advertisements
Track Severe Weather on mobile